TimeEST,TemperatureF,Dew PointF,Humidity,Sea Level PressureIn,VisibilityMPH,Wind Direction,Wind SpeedMPH,Gust SpeedMPH,PrecipitationIn,Events,Conditions,WindDirDegrees,DateUTC
12:15 AM,24.8,24.8,100,30.37,10.0,Calm,Calm,-,N/A,,Clear,0,2013-01-08 05:15:00
12:35 AM,26.6,24.8,93,30.37,10.0,Calm,Calm,-,N/A,,Clear,0,2013-01-08 05:35:00
12:55 AM,26.6,26.6,100,30.37,10.0,Calm,Calm,-,N/A,,Clear,0,2013-01-08 05:55:00
1:15 AM,24.8,24.8,100,30.37,10.0,Calm,Calm,-,N/A,,Clear,0,2013-01-08 06:15:00
1:35 AM,24.8,24.8,100,30.37,10.0,Calm,Calm,-,N/A,,Clear,0,2013-01-08 06:35:00
1:55 AM,24.8,24.8,100,30.37,10.0,Calm,Calm,-,N/A,,Clear,0,2013-01-08 06:55:00
2:15 AM,24.8,24.8,100,30.37,10.0,Calm,Calm,-,N/A,,Clear,0,2013-01-08 07:15:00
2:35 AM,24.8,24.8,100,30.37,10.0,Calm,Calm,-,N/A,,Clear,0,2013-01-08 07:35:00
2:55 AM,24.8,24.8,100,30.37,10.0,Calm,Calm,-,N/A,,Clear,0,2013-01-08 07:55:00
3:15 AM,24.8,24.8,100,30.37,10.0,Calm,Calm,-,N/A,,Clear,0,2013-01-08 08:15:00
3:35 AM,23.0,23.0,100,30.38,7.0,Calm,Calm,-,N/A,,Clear,0,2013-01-08 08:35:00
3:55 AM,24.8,24.8,100,30.38,10.0,Calm,Calm,-,N/A,,Clear,0,2013-01-08 08:55:00
4:15 AM,24.8,24.8,100,30.37,10.0,Calm,Calm,-,N/A,,Clear,0,2013-01-08 09:15:00
4:35 AM,23.0,23.0,100,30.37,10.0,Calm,Calm,-,N/A,,Clear,0,2013-01-08 09:35:00
4:55 AM,23.0,23.0,100,30.36,7.0,Calm,Calm,-,N/A,,Clear,0,2013-01-08 09:55:00
5:15 AM,23.0,23.0,100,30.36,10.0,Calm,Calm,-,N/A,,Clear,0,2013-01-08 10:15:00
5:35 AM,23.0,23.0,100,30.35,10.0,Calm,Calm,-,N/A,,Clear,0,2013-01-08 10:35:00
5:55 AM,23.0,23.0,100,30.36,10.0,Calm,Calm,-,N/A,,Clear,0,2013-01-08 10:55:00
6:15 AM,21.2,21.2,100,30.36,7.0,Calm,Calm,-,N/A,,Clear,0,2013-01-08 11:15:00
6:35 AM,21.2,21.2,100,30.36,7.0,Calm,Calm,-,N/A,,Clear,0,2013-01-08 11:35:00
6:55 AM,21.2,21.2,100,30.37,7.0,Calm,Calm,-,N/A,,Clear,0,2013-01-08 11:55:00
7:15 AM,23.0,21.2,93,30.37,10.0,Calm,Calm,-,N/A,,Clear,0,2013-01-08 12:15:00
7:35 AM,21.2,21.2,100,30.38,7.0,Calm,Calm,-,N/A,,Clear,0,2013-01-08 12:35:00
7:55 AM,21.2,21.2,100,30.39,5.0,Calm,Calm,-,N/A,,Clear,0,2013-01-08 12:55:00
8:35 AM,26.6,26.6,100,30.41,7.0,Calm,Calm,-,N/A,,Clear,0,2013-01-08 13:35:00
8:55 AM,28.4,28.4,100,30.41,5.0,Calm,Calm,-,N/A,,Clear,0,2013-01-08 13:55:00
9:15 AM,30.2,30.2,100,30.40,7.0,Calm,Calm,-,N/A,,Clear,0,2013-01-08 14:15:00
9:35 AM,35.6,32.0,87,30.41,7.0,Calm,Calm,-,N/A,,Clear,0,2013-01-08 14:35:00
9:55 AM,35.6,32.0,87,30.42,10.0,Calm,Calm,-,N/A,,Clear,0,2013-01-08 14:55:00
10:15 AM,39.2,33.8,81,30.42,10.0,Calm,Calm,-,N/A,,Clear,0,2013-01-08 15:15:00
10:35 AM,41.0,33.8,76,30.42,10.0,Calm,Calm,-,N/A,,Clear,0,2013-01-08 15:35:00
10:55 AM,42.8,33.8,70,30.41,10.0,NW,3.5,-,N/A,,Clear,310,2013-01-08 15:55:00
11:15 AM,42.8,33.8,70,30.40,10.0,West,3.5,-,N/A,,Clear,260,2013-01-08 16:15:00
11:35 AM,44.6,33.8,66,30.40,10.0,WNW,3.5,-,N/A,,Clear,290,2013-01-08 16:35:00
11:55 AM,44.6,33.8,66,30.39,10.0,NW,5.8,-,N/A,,Clear,310,2013-01-08 16:55:00
12:15 PM,44.6,33.8,66,30.39,10.0,WNW,5.8,-,N/A,,Clear,290,2013-01-08 17:15:00
12:35 PM,46.4,33.8,62,30.37,10.0,West,4.6,-,N/A,,Clear,260,2013-01-08 17:35:00
12:55 PM,46.4,33.8,62,30.36,10.0,West,4.6,-,N/A,,Clear,280,2013-01-08 17:55:00
1:15 PM,46.4,33.8,62,30.35,10.0,WNW,3.5,-,N/A,,Clear,290,2013-01-08 18:15:00
1:35 PM,48.2,33.8,58,30.35,10.0,West,4.6,-,N/A,,Clear,270,2013-01-08 18:35:00
1:55 PM,50.0,30.2,47,30.35,10.0,West,5.8,-,N/A,,Clear,270,2013-01-08 18:55:00
2:15 PM,51.8,30.2,44,30.35,10.0,West,5.8,-,N/A,,Clear,260,2013-01-08 19:15:00
2:55 PM,53.6,28.4,38,30.35,10.0,Calm,Calm,-,N/A,,Clear,0,2013-01-08 19:55:00
3:15 PM,53.6,26.6,35,30.34,10.0,Calm,Calm,-,N/A,,Clear,0,2013-01-08 20:15:00
3:35 PM,51.8,28.4,41,30.35,10.0,Calm,Calm,-,N/A,,Clear,0,2013-01-08 20:35:00
3:55 PM,51.8,28.4,41,30.35,10.0,Calm,Calm,-,N/A,,Clear,0,2013-01-08 20:55:00
4:15 PM,51.8,28.4,41,30.35,10.0,Calm,Calm,-,N/A,,Clear,0,2013-01-08 21:15:00
4:35 PM,51.8,28.4,41,30.35,10.0,Calm,Calm,-,N/A,,Clear,0,2013-01-08 21:35:00
4:55 PM,48.2,26.6,43,30.36,10.0,Calm,Calm,-,N/A,,Clear,0,2013-01-08 21:55:00
5:15 PM,46.4,26.6,46,30.36,10.0,Calm,Calm,-,N/A,,Clear,0,2013-01-08 22:15:00
5:35 PM,42.8,26.6,53,30.36,10.0,Calm,Calm,-,N/A,,Clear,0,2013-01-08 22:35:00
5:55 PM,37.4,26.6,65,30.35,10.0,East,3.5,-,N/A,,Clear,100,2013-01-08 22:55:00
6:15 PM,37.4,26.6,65,30.34,10.0,Calm,Calm,-,N/A,,Clear,0,2013-01-08 23:15:00
6:35 PM,37.4,26.6,65,30.35,10.0,Calm,Calm,-,N/A,,Clear,0,2013-01-08 23:35:00
6:55 PM,35.6,26.6,70,30.36,10.0,Calm,Calm,-,N/A,,Clear,0,2013-01-08 23:55:00
7:15 PM,35.6,26.6,70,30.36,10.0,Calm,Calm,-,N/A,,Clear,0,2013-01-09 00:15:00
7:35 PM,35.6,26.6,70,30.36,10.0,Calm,Calm,-,N/A,,Clear,0,2013-01-09 00:35:00
7:55 PM,33.8,26.6,75,30.37,10.0,Calm,Calm,-,N/A,,Clear,0,2013-01-09 00:55:00
8:15 PM,33.8,26.6,75,30.37,10.0,Calm,Calm,-,N/A,,Clear,0,2013-01-09 01:15:00
8:35 PM,33.8,26.6,75,30.37,10.0,Calm,Calm,-,N/A,,Clear,0,2013-01-09 01:35:00
8:55 PM,32.0,26.6,80,30.38,10.0,Calm,Calm,-,N/A,,Clear,0,2013-01-09 01:55:00
9:15 PM,30.2,26.6,86,30.38,10.0,Calm,Calm,-,N/A,,Clear,0,2013-01-09 02:15:00
9:35 PM,30.2,26.6,86,30.38,10.0,Calm,Calm,-,N/A,,Clear,0,2013-01-09 02:35:00
9:55 PM,30.2,26.6,86,30.39,10.0,Calm,Calm,-,N/A,,Clear,0,2013-01-09 02:55:00
10:15 PM,30.2,26.6,86,30.39,10.0,Calm,Calm,-,N/A,,Clear,0,2013-01-09 03:15:00
10:35 PM,30.2,26.6,86,30.39,10.0,Calm,Calm,-,N/A,,Clear,0,2013-01-09 03:35:00
10:55 PM,30.2,26.6,86,30.39,10.0,Calm,Calm,-,N/A,,Clear,0,2013-01-09 03:55:00
11:15 PM,30.2,26.6,86,30.38,10.0,Calm,Calm,-,N/A,,Clear,0,2013-01-09 04:15:00
11:35 PM,30.2,28.4,93,30.39,10.0,Calm,Calm,-,N/A,,Mostly Cloudy,0,2013-01-09 04:35:00